Time;durP1;ratioP1;P1;durP2;ratioP2;P2;SDS_P1;SDS_P2;PMS_P1;PMS_P2;Temp;Humidity;BMP_temperature;BMP_pressure;BME280_temperature;BME280_humidity;BME280_pressure;Samples;Min_cycle;Max_cycle;Signal;HPM_P1;HPM_P2
2022/07/05 00:01:02;;;;;;;3.03;0.95;;;9.30;99.90;;;;;;5056555;28;20123;-72
2022/07/05 00:03:28;;;;;;;0.05;0.05;;;9.30;99.90;;;;;;5056367;28;20350;-73
2022/07/05 00:05:55;;;;;;;0.00;0.00;;;9.30;99.90;;;;;;5074282;28;20047;-73
2022/07/05 00:08:21;;;;;;;0.00;0.00;;;9.30;99.90;;;;;;5073995;28;20486;-73
2022/07/05 00:10:47;;;;;;;0.00;0.00;;;9.20;99.90;;;;;;5074102;28;20041;-74
2022/07/05 00:13:13;;;;;;;0.20;0.10;;;9.30;99.90;;;;;;5074431;28;20044;-73
2022/07/05 00:15:39;;;;;;;0.03;0.03;;;9.20;99.90;;;;;;5074034;28;20510;-74
2022/07/05 00:18:04;;;;;;;0.00;0.00;;;9.20;99.90;;;;;;5074081;28;20037;-74
2022/07/05 00:20:30;;;;;;;0.17;0.17;;;9.20;99.90;;;;;;5073927;28;20492;-74
2022/07/05 00:22:56;;;;;;;0.10;0.10;;;9.20;99.90;;;;;;5073738;28;20041;-73
2022/07/05 00:25:21;;;;;;;0.00;0.00;;;9.30;99.90;;;;;;5073880;28;20044;-73
2022/07/05 00:27:47;;;;;;;0.00;0.00;;;9.30;99.90;;;;;;5073890;28;20135;-73
2022/07/05 00:30:13;;;;;;;0.08;0.08;;;9.30;99.90;;;;;;5073804;28;20064;-73
2022/07/05 00:32:39;;;;;;;0.00;0.00;;;9.30;99.90;;;;;;5073545;28;20051;-73
2022/07/05 00:35:05;;;;;;;0.00;0.00;;;9.30;99.90;;;;;;5073557;28;20044;-73
2022/07/05 00:37:31;;;;;;;0.00;0.00;;;9.30;99.90;;;;;;5073435;28;20368;-73
2022/07/05 00:39:57;;;;;;;0.00;0.00;;;9.30;99.90;;;;;;5073290;28;20503;-73
2022/07/05 00:42:23;;;;;;;0.00;0.00;;;9.20;99.90;;;;;;5073590;28;20079;-73
2022/07/05 00:44:48;;;;;;;0.03;0.00;;;9.20;99.90;;;;;;5073590;28;20052;-73
2022/07/05 00:47:14;;;;;;;0.00;0.00;;;9.20;99.90;;;;;;5073360;28;20044;-73
2022/07/05 00:49:41;;;;;;;0.00;0.00;;;9.20;99.90;;;;;;5073472;28;20040;-73
2022/07/05 00:52:07;;;;;;;0.00;0.00;;;9.20;99.90;;;;;;5073124;28;20083;-73
2022/07/05 00:54:35;;;;;;;0.00;0.00;;;9.20;99.90;;;;;;5073327;28;20072;-73
2022/07/05 00:57:01;;;;;;;0.00;0.00;;;10.30;99.90;;;;;;5073433;28;20084;-73
2022/07/05 00:59:30;;;;;;;0.32;0.20;;;9.20;99.90;;;;;;5073268;28;20075;-73
2022/07/05 01:01:56;;;;;;;0.05;0.05;;;9.20;99.90;;;;;;5073212;28;20036;-73
2022/07/05 01:04:22;;;;;;;0.00;0.00;;;9.30;99.90;;;;;;5072928;28;20439;-73
2022/07/05 01:06:50;;;;;;;2.30;0.68;;;9.30;99.90;;;;;;5073138;28;20079;-73
2022/07/05 01:09:18;;;;;;;0.15;0.15;;;9.30;99.90;;;;;;5054976;28;20048;-72
2022/07/05 01:11:44;;;;;;;0.40;0.15;;;9.20;99.90;;;;;;5073101;28;20040;-72
2022/07/05 01:14:15;;;;;;;0.30;0.30;;;9.20;99.90;;;;;;5072728;28;20048;-73
2022/07/05 01:16:41;;;;;;;0.43;0.20;;;9.20;99.90;;;;;;5072776;28;20044;-74
2022/07/05 01:19:07;;;;;;;0.40;0.13;;;9.10;99.90;;;;;;5072672;28;20129;-73
2022/07/05 01:21:44;;;;;;;0.25;0.17;;;9.10;99.90;;;;;;5072598;28;20170;-73
2022/07/05 01:24:15;;;;;;;0.00;0.00;;;9.10;99.90;;;;;;5072840;28;20044;-73
2022/07/05 01:26:42;;;;;;;0.10;0.10;;;9.10;99.90;;;;;;5072789;28;20080;-73
2022/07/05 01:29:08;;;;;;;0.00;0.00;;;9.10;99.90;;;;;;5072607;28;20036;-73
2022/07/05 01:31:38;;;;;;;0.08;0.08;;;9.10;99.90;;;;;;5072517;28;20032;-73
2022/07/05 01:34:05;;;;;;;0.00;0.00;;;9.10;99.90;;;;;;5072650;28;20063;-73
2022/07/05 01:36:30;;;;;;;0.20;0.20;;;9.10;99.90;;;;;;5072738;28;20495;-73
2022/07/05 01:38:56;;;;;;;0.30;0.30;;;9.10;99.90;;;;;;5072579;28;20102;-73
2022/07/05 01:41:21;;;;;;;0.32;0.30;;;9.00;99.90;;;;;;5072498;28;20110;-73
2022/07/05 01:43:47;;;;;;;0.00;0.00;;;9.10;99.90;;;;;;5072494;28;20458;-73
2022/07/05 01:46:16;;;;;;;0.10;0.10;;;9.10;99.90;;;;;;5072351;28;20066;-73
2022/07/05 01:48:42;;;;;;;0.20;0.20;;;9.20;99.90;;;;;;5072568;28;20048;-72
2022/07/05 01:51:15;;;;;;;0.22;0.10;;;9.30;99.90;;;;;;5072473;28;20040;-72
2022/07/05 01:53:42;;;;;;;0.10;0.10;;;9.30;99.90;;;;;;5054565;28;20047;-73
2022/07/05 01:56:08;;;;;;;0.32;0.10;;;9.40;99.90;;;;;;5072073;28;20059;-73
2022/07/05 01:58:35;;;;;;;0.17;0.17;;;9.40;99.90;;;;;;5072261;28;20045;-73
2022/07/05 02:01:01;;;;;;;0.10;0.10;;;9.40;99.90;;;;;;5075687;28;20509;-72
2022/07/05 02:03:27;;;;;;;0.20;0.10;;;9.40;99.90;;;;;;5079059;28;20040;-73
2022/07/05 02:05:53;;;;;;;0.22;0.10;;;9.40;99.90;;;;;;5079061;28;20074;-73
2022/07/05 02:08:19;;;;;;;0.03;0.03;;;9.40;99.90;;;;;;5078915;28;20041;-72
2022/07/05 02:10:45;;;;;;;0.93;0.55;;;9.40;99.90;;;;;;5078910;28;20520;-72
2022/07/05 02:13:11;;;;;;;0.20;0.20;;;9.40;99.90;;;;;;5078934;28;20098;-73
2022/07/05 02:15:41;;;;;;;0.10;0.10;;;9.40;99.90;;;;;;5079123;28;20055;-73
2022/07/05 02:18:08;;;;;;;1.30;0.88;;;9.40;99.90;;;;;;5078853;28;20064;-73
2022/07/05 02:20:37;;;;;;;0.00;0.00;;;9.40;99.90;;;;;;5078880;28;20045;-73
2022/07/05 02:23:02;;;;;;;0.08;0.08;;;9.30;99.90;;;;;;5078726;28;20041;-72
2022/07/05 02:25:28;;;;;;;0.10;0.10;;;9.20;99.90;;;;;;5078683;28;20041;-73
2022/07/05 02:27:55;;;;;;;0.20;0.20;;;9.20;99.90;;;;;;5078886;28;20040;-72
2022/07/05 02:30:21;;;;;;;0.00;0.00;;;9.10;99.90;;;;;;5078970;28;20048;-73
2022/07/05 02:32:47;;;;;;;0.32;0.32;;;9.10;99.90;;;;;;5078803;28;20040;-73
2022/07/05 02:35:13;;;;;;;0.00;0.00;;;9.10;99.90;;;;;;5060552;28;20051;-73
2022/07/05 02:37:39;;;;;;;0.10;0.10;;;9.00;99.90;;;;;;5078567;28;20044;-73
2022/07/05 02:40:13;;;;;;;0.35;0.35;;;9.00;99.90;;;;;;5078602;28;20036;-73
2022/07/05 02:42:39;;;;;;;0.00;0.00;;;9.00;99.90;;;;;;5078939;28;20127;-73
2022/07/05 02:45:06;;;;;;;0.00;0.00;;;9.00;99.90;;;;;;5078504;28;20123;-72
2022/07/05 02:47:34;;;;;;;0.85;0.77;;;9.00;99.90;;;;;;5078615;28;20040;-73
2022/07/05 02:50:07;;;;;;;0.52;0.25;;;9.00;99.90;;;;;;5078709;28;20044;-73
2022/07/05 02:52:33;;;;;;;0.40;0.32;;;9.00;99.90;;;;;;5078511;28;20082;-72
2022/07/05 02:54:58;;;;;;;0.10;0.10;;;8.90;99.90;;;;;;5078392;28;20044;-72
2022/07/05 02:57:24;;;;;;;0.03;0.03;;;8.90;99.90;;;;;;5060590;28;20095;-72
2022/07/05 02:59:53;;;;;;;0.25;0.20;;;9.00;99.90;;;;;;5078572;28;20051;-73
2022/07/05 03:02:18;;;;;;;0.00;0.00;;;9.00;99.90;;;;;;5078452;28;20119;-73
2022/07/05 03:04:44;;;;;;;0.00;0.00;;;9.00;99.90;;;;;;5078342;28;20079;-73
2022/07/05 03:07:09;;;;;;;0.00;0.00;;;9.00;99.90;;;;;;5078377;28;20037;-73
2022/07/05 03:09:35;;;;;;;0.30;0.30;;;8.90;99.90;;;;;;5078211;28;20506;-73
2022/07/05 03:12:01;;;;;;;0.05;0.05;;;9.00;99.90;;;;;;5076268;28;20474;-73
2022/07/05 03:14:26;;;;;;;0.10;0.10;;;9.00;99.90;;;;;;5075132;28;20048;-72
2022/07/05 03:16:52;;;;;;;0.20;0.20;;;8.90;99.90;;;;;;5075164;28;20052;-73
2022/07/05 03:19:17;;;;;;;0.00;0.00;;;8.90;99.90;;;;;;5075075;28;20135;-73
2022/07/05 03:21:43;;;;;;;0.05;0.05;;;8.90;99.90;;;;;;5075007;28;20049;-72
2022/07/05 03:24:09;;;;;;;0.13;0.13;;;8.90;99.90;;;;;;5074836;28;20047;-72
2022/07/05 03:26:35;;;;;;;0.00;0.00;;;8.90;99.90;;;;;;5075085;28;20499;-72
2022/07/05 03:29:00;;;;;;;0.40;0.20;;;9.00;99.90;;;;;;5075013;28;20041;-73
2022/07/05 03:31:26;;;;;;;0.10;0.10;;;9.00;99.90;;;;;;5074898;28;20064;-72
2022/07/05 03:33:51;;;;;;;0.20;0.20;;;8.90;99.90;;;;;;5074666;28;20520;-73
2022/07/05 03:36:17;;;;;;;1.70;0.63;;;9.00;99.90;;;;;;5074687;28;20044;-73
2022/07/05 03:38:43;;;;;;;0.22;0.22;;;9.20;99.90;;;;;;5074923;28;20098;-73
2022/07/05 03:41:08;;;;;;;0.68;0.47;;;9.00;99.90;;;;;;5040480;28;20350;-73
2022/07/05 03:43:34;;;;;;;0.00;0.00;;;9.00;99.90;;;;;;5056591;28;20045;-73
2022/07/05 03:45:59;;;;;;;0.63;0.20;;;9.00;99.90;;;;;;5074632;28;20487;-73
2022/07/05 03:48:25;;;;;;;0.00;0.00;;;9.10;99.90;;;;;;5074478;28;20056;-73
2022/07/05 03:50:51;;;;;;;0.28;0.20;;;9.10;99.90;;;;;;5074509;28;20037;-73
2022/07/05 03:53:16;;;;;;;1.77;0.70;;;9.10;99.90;;;;;;5074171;28;20048;-73
2022/07/05 03:55:43;;;;;;;0.17;0.17;;;9.10;99.90;;;;;;5074138;28;20102;-73
2022/07/05 03:58:08;;;;;;;0.10;0.10;;;9.10;99.90;;;;;;5056349;28;20061;-73
2022/07/05 04:00:34;;;;;;;0.00;0.00;;;9.10;99.90;;;;;;5074380;28;20052;-73
2022/07/05 04:03:00;;;;;;;0.25;0.25;;;9.10;99.90;;;;;;5074135;28;20090;-73
2022/07/05 04:05:26;;;;;;;0.10;0.10;;;9.10;99.90;;;;;;5074265;28;20425;-73
2022/07/05 04:07:55;;;;;;;0.20;0.10;;;9.20;99.90;;;;;;5074070;28;20044;-73
2022/07/05 04:10:22;;;;;;;1.08;0.57;;;9.30;99.90;;;;;;5074320;28;20044;-73
2022/07/05 04:12:48;;;;;;;0.30;0.30;;;9.30;99.90;;;;;;5074262;28;20044;-72
2022/07/05 04:15:14;;;;;;;0.70;0.20;;;9.40;99.90;;;;;;5074078;28;20079;-73
2022/07/05 04:17:56;;;;;;;1.88;0.70;;;9.40;99.90;;;;;;5074209;28;20037;-73
2022/07/05 04:20:24;;;;;;;0.38;0.38;;;9.50;99.90;;;;;;5056604;28;20045;-73
2022/07/05 04:22:50;;;;;;;0.68;0.47;;;9.60;99.90;;;;;;5074577;28;20040;-72
2022/07/05 04:25:17;;;;;;;0.50;0.50;;;9.60;99.90;;;;;;5074249;28;20091;-73
2022/07/05 04:27:48;;;;;;;0.00;0.00;;;9.60;99.90;;;;;;5074700;28;20445;-73
2022/07/05 04:30:16;;;;;;;0.32;0.32;;;9.70;99.90;;;;;;5074464;28;20052;-73
2022/07/05 04:32:42;;;;;;;0.30;0.30;;;9.80;99.90;;;;;;5074141;28;20044;-73
2022/07/05 04:35:08;;;;;;;0.47;0.47;;;10.00;99.90;;;;;;5074475;28;20395;-72
2022/07/05 04:37:34;;;;;;;0.77;0.65;;;10.10;99.90;;;;;;5074218;28;20047;-72
2022/07/05 04:40:00;;;;;;;0.57;0.43;;;10.80;99.90;;;;;;5074156;28;20041;-72
2022/07/05 04:42:25;;;;;;;0.93;0.88;;;10.50;99.90;;;;;;5074247;28;20201;-73
2022/07/05 04:44:51;;;;;;;0.73;0.73;;;10.60;99.90;;;;;;5074024;28;20044;-73
2022/07/05 04:47:17;;;;;;;0.85;0.70;;;10.80;99.90;;;;;;5073884;28;20178;-73
2022/07/05 04:49:42;;;;;;;4.07;1.40;;;11.00;99.90;;;;;;5055984;28;20118;-73
2022/07/05 04:52:08;;;;;;;8.80;2.10;;;11.30;99.90;;;;;;5073774;28;20034;-73
2022/07/05 04:54:33;;;;;;;1.20;0.73;;;11.60;99.90;;;;;;5073863;28;20059;-73
2022/07/05 04:56:59;;;;;;;0.32;0.30;;;12.20;99.90;;;;;;5073938;28;20076;-73
2022/07/05 04:59:25;;;;;;;3.00;0.43;;;12.60;99.90;;;;;;5039682;28;20049;-73
2022/07/05 05:01:50;;;;;;;0.20;0.20;;;13.30;99.90;;;;;;5055607;28;20102;-74
2022/07/05 05:04:16;;;;;;;0.63;0.55;;;14.20;99.90;;;;;;5073794;28;20456;-74
2022/07/05 05:06:41;;;;;;;0.10;0.10;;;14.90;99.90;;;;;;5073899;28;20124;-74
2022/07/05 05:09:07;;;;;;;0.25;0.25;;;15.30;99.90;;;;;;5055835;28;20045;-73
2022/07/05 05:11:33;;;;;;;0.63;0.50;;;15.10;99.90;;;;;;5073666;28;20043;-73
2022/07/05 05:13:58;;;;;;;0.10;0.10;;;14.90;99.90;;;;;;5055572;28;20048;-74
2022/07/05 05:16:24;;;;;;;0.28;0.28;;;14.60;99.90;;;;;;5073476;28;20070;-74
2022/07/05 05:18:49;;;;;;;0.10;0.10;;;14.20;99.90;;;;;;5055687;28;20040;-74
2022/07/05 05:21:15;;;;;;;0.75;0.30;;;14.10;99.90;;;;;;5073367;28;20047;-74
2022/07/05 05:23:41;;;;;;;0.43;0.40;;;14.80;99.90;;;;;;5073513;28;20047;-74
2022/07/05 05:26:06;;;;;;;1.63;0.63;;;15.80;99.90;;;;;;5073361;28;20121;-74
2022/07/05 05:28:33;;;;;;;0.57;0.43;;;16.70;99.90;;;;;;5072637;28;20402;-74
2022/07/05 05:30:59;;;;;;;0.68;0.45;;;17.50;99.90;;;;;;5072527;28;20053;-74
2022/07/05 05:33:24;;;;;;;1.02;0.55;;;18.00;99.90;;;;;;5072593;28;20044;-74
2022/07/05 05:35:50;;;;;;;1.05;0.45;;;18.40;99.90;;;;;;5071916;28;20041;-74
2022/07/05 05:38:15;;;;;;;0.22;0.13;;;18.80;99.90;;;;;;5072310;28;20075;-74
2022/07/05 05:40:43;;;;;;;0.20;0.20;;;19.20;99.90;;;;;;5072537;28;20044;-74
2022/07/05 05:43:08;;;;;;;0.25;0.25;;;19.50;99.90;;;;;;5072484;28;20101;-74
2022/07/05 05:45:34;;;;;;;0.38;0.38;;;19.80;99.90;;;;;;5072469;28;20052;-75
2022/07/05 05:48:00;;;;;;;1.23;0.63;;;20.20;99.90;;;;;;5072581;28;20048;-74
2022/07/05 05:50:28;;;;;;;1.25;0.73;;;20.60;99.90;;;;;;5072637;28;20049;-74
2022/07/05 05:52:54;;;;;;;0.68;0.32;;;20.90;99.90;;;;;;5072110;28;20514;-74
2022/07/05 05:55:21;;;;;;;0.15;0.15;;;21.30;99.90;;;;;;5072442;28;20040;-74
2022/07/05 05:57:47;;;;;;;0.00;0.00;;;21.60;99.90;;;;;;5072188;28;20165;-74
2022/07/05 06:00:14;;;;;;;0.28;0.28;;;21.90;99.90;;;;;;5072092;28;20090;-74
2022/07/05 06:02:41;;;;;;;0.50;0.35;;;22.20;99.90;;;;;;5071982;28;20474;-74
2022/07/05 06:05:07;;;;;;;0.15;0.13;;;22.60;99.90;;;;;;5072339;28;20089;-75
2022/07/05 06:07:43;;;;;;;0.22;0.22;;;22.70;98.50;;;;;;5072098;28;20048;-74
2022/07/05 06:10:08;;;;;;;0.35;0.30;;;23.10;99.90;;;;;;5072243;28;20044;-74
2022/07/05 06:12:34;;;;;;;0.10;0.10;;;23.30;92.90;;;;;;5072072;28;20124;-75
2022/07/05 06:14:59;;;;;;;0.05;0.05;;;23.50;88.30;;;;;;5072309;28;20493;-74
2022/07/05 06:17:25;;;;;;;0.25;0.25;;;23.60;90.90;;;;;;5072408;28;20090;-74
2022/07/05 06:19:51;;;;;;;0.00;0.00;;;23.70;77.20;;;;;;5071901;28;20041;-75
2022/07/05 06:22:16;;;;;;;1.55;0.52;;;23.90;63.50;;;;;;5072134;28;20075;-74
2022/07/05 06:24:42;;;;;;;0.10;0.10;;;23.80;64.50;;;;;;5072072;28;20552;-74
2022/07/05 06:27:07;;;;;;;0.00;0.00;;;23.80;65.70;;;;;;5072089;28;20041;-74
2022/07/05 06:29:33;;;;;;;0.08;0.08;;;23.90;57.10;;;;;;5072032;28;20045;-74
2022/07/05 06:31:59;;;;;;;0.98;0.60;;;24.10;67.00;;;;;;5072071;28;20514;-75
2022/07/05 06:34:25;;;;;;;0.00;0.00;;;24.40;53.40;;;;;;5072066;28;20083;-75
2022/07/05 06:36:51;;;;;;;0.00;0.00;;;24.70;53.30;;;;;;5071947;28;20076;-74
2022/07/05 06:39:17;;;;;;;0.17;0.10;;;25.20;52.70;;;;;;5072392;28;20086;-75
2022/07/05 06:41:42;;;;;;;0.00;0.00;;;25.40;24.70;;;;;;5071948;28;20040;-75
2022/07/05 06:44:08;;;;;;;0.00;0.00;;;25.50;30.30;;;;;;5071957;28;20049;-75
2022/07/05 06:46:33;;;;;;;0.00;0.00;;;25.50;26.70;;;;;;5072790;28;20037;-74
2022/07/05 06:48:59;;;;;;;0.00;0.00;;;25.60;24.40;;;;;;5075735;28;20040;-75
2022/07/05 06:51:24;;;;;;;0.00;0.00;;;25.70;23.90;;;;;;5075633;28;20119;-74
2022/07/05 06:53:50;;;;;;;0.00;0.00;;;25.60;17.60;;;;;;5075331;28;20037;-74
2022/07/05 06:56:16;;;;;;;1.67;0.43;;;25.50;18.70;;;;;;5075362;28;20044;-75
2022/07/05 06:58:41;;;;;;;0.00;0.00;;;25.50;17.00;;;;;;5075390;28;20512;-74
2022/07/05 07:01:07;;;;;;;0.10;0.10;;;25.40;17.40;;;;;;5075484;28;20466;-74
2022/07/05 07:03:33;;;;;;;0.00;0.00;;;25.50;18.20;;;;;;5075381;28;20052;-75
2022/07/05 07:05:59;;;;;;;0.00;0.00;;;25.70;13.40;;;;;;5075466;28;20123;-75
2022/07/05 07:11:09;;;;;;;0.10;0.10;;;25.50;12.20;;;;;;5057479;28;20052;-74
2022/07/05 07:13:34;;;;;;;0.00;0.00;;;25.80;12.20;;;;;;5075458;28;20045;-74
2022/07/05 07:16:00;;;;;;;0.00;0.00;;;26.00;9.30;;;;;;5075374;28;20040;-75
2022/07/05 07:18:26;;;;;;;0.50;0.43;;;26.00;4.80;;;;;;5075069;28;20076;-75
2022/07/05 07:20:51;;;;;;;0.43;0.43;;;25.90;8.30;;;;;;5075193;28;20049;-74
2022/07/05 07:23:17;;;;;;;0.00;0.00;;;25.90;6.20;;;;;;5074962;28;20037;-74
2022/07/05 07:25:43;;;;;;;0.10;0.10;;;25.50;9.60;;;;;;5075022;28;20040;-75
2022/07/05 07:28:08;;;;;;;0.38;0.17;;;25.90;6.40;;;;;;5075120;28;20070;-74
2022/07/05 07:30:34;;;;;;;0.63;0.35;;;26.30;5.90;;;;;;5075204;28;20406;-75
2022/07/05 07:32:59;;;;;;;0.00;0.00;;;26.00;2.40;;;;;;5074885;28;20044;-74
2022/07/05 07:35:25;;;;;;;1.15;0.43;;;25.80;4.50;;;;;;5075127;28;20040;-74
2022/07/05 07:37:51;;;;;;;0.17;0.10;;;25.50;6.10;;;;;;5074643;28;20045;-74
2022/07/05 07:40:17;;;;;;;0.10;0.10;;;26.00;4.50;;;;;;5074651;28;20517;-74
2022/07/05 07:42:43;;;;;;;0.25;0.20;;;26.30;1.00;;;;;;5074985;28;20478;-74
2022/07/05 07:45:09;;;;;;;0.00;0.00;;;25.80;1.60;;;;;;5074636;28;20076;-74
2022/07/05 07:47:36;;;;;;;0.55;0.38;;;24.70;5.20;;;;;;5074577;28;20040;-76
2022/07/05 07:50:04;;;;;;;1.55;0.85;;;23.90;13.40;;;;;;5074466;28;20066;-75
2022/07/05 07:52:33;;;;;;;1.85;0.13;;;23.10;21.40;;;;;;5074635;28;20064;-74
2022/07/05 07:55:00;;;;;;;0.90;0.75;;;22.70;26.00;;;;;;5074354;28;20119;-75
2022/07/05 07:57:25;;;;;;;0.00;0.00;;;22.60;31.10;;;;;;5074620;28;20410;-74
2022/07/05 07:59:51;;;;;;;0.30;0.30;;;23.00;29.80;;;;;;5073695;28;20047;-74
2022/07/05 08:02:20;;;;;;;0.00;0.00;;;23.90;22.30;;;;;;5056552;28;20049;-74
2022/07/05 08:04:47;;;;;;;0.10;0.10;;;24.20;14.60;;;;;;5056250;28;20142;-74
2022/07/05 08:07:12;;;;;;;0.00;0.00;;;23.70;19.30;;;;;;5056084;28;20044;-75
2022/07/05 08:09:38;;;;;;;0.38;0.22;;;24.00;18.60;;;;;;5074337;28;20475;-75
2022/07/05 08:12:05;;;;;;;1.45;0.38;;;23.60;17.90;;;;;;5056489;28;20044;-74
2022/07/05 08:14:31;;;;;;;0.00;0.00;;;23.00;19.00;;;;;;5074106;28;20055;-75
2022/07/05 08:16:58;;;;;;;0.30;0.28;;;22.40;25.90;;;;;;5073861;28;20040;-74
2022/07/05 08:22:08;;;;;;;0.60;0.60;;;21.60;41.60;;;;;;5073799;28;20052;-74
2022/07/05 08:24:39;;;;;;;1.17;1.08;;;21.10;34.20;;;;;;5073959;28;20053;-74
2022/07/05 08:27:05;;;;;;;0.00;0.00;;;20.90;40.40;;;;;;5073985;28;20055;-74
2022/07/05 08:29:31;;;;;;;0.00;0.00;;;20.50;45.80;;;;;;5073897;28;20040;-74
2022/07/05 08:31:57;;;;;;;0.00;0.00;;;20.50;53.80;;;;;;5073659;28;20075;-74
2022/07/05 08:34:22;;;;;;;0.00;0.00;;;20.80;48.90;;;;;;5073405;28;20040;-74
2022/07/05 08:36:48;;;;;;;8.07;0.70;;;21.70;37.40;;;;;;5073714;28;20052;-74
2022/07/05 08:39:14;;;;;;;0.38;0.32;;;22.60;24.70;;;;;;5073451;28;20072;-74
2022/07/05 08:41:41;;;;;;;0.32;0.10;;;23.40;17.10;;;;;;5055651;28;20494;-74
2022/07/05 08:44:08;;;;;;;0.00;0.00;;;23.90;14.10;;;;;;5073550;28;20384;-74
2022/07/05 08:46:37;;;;;;;0.08;0.08;;;24.80;11.30;;;;;;5073398;28;20049;-74
2022/07/05 08:49:06;;;;;;;0.10;0.10;;;25.30;4.40;;;;;;5073264;28;20127;-74
2022/07/05 08:51:36;;;;;;;0.93;0.70;;;24.50;3.00;;;;;;5073463;28;20076;-74
2022/07/05 08:54:02;;;;;;;0.22;0.22;;;23.20;8.70;;;;;;5073294;28;20040;-74
2022/07/05 08:56:28;;;;;;;0.25;0.10;;;22.50;16.90;;;;;;5073084;28;20060;-75
2022/07/05 08:58:54;;;;;;;0.00;0.00;;;22.20;20.90;;;;;;5073098;28;20051;-74
2022/07/05 09:01:21;;;;;;;0.10;0.10;;;22.70;20.90;;;;;;5073035;28;20052;-75
2022/07/05 09:03:48;;;;;;;0.20;0.20;;;22.70;20.90;;;;;;5073182;28;20041;-74
2022/07/05 09:06:22;;;;;;;0.30;0.25;;;23.00;20.30;;;;;;5073188;28;20040;-74
2022/07/05 09:08:53;;;;;;;0.77;0.20;;;23.40;16.40;;;;;;5073138;28;20044;-74
2022/07/05 09:11:25;;;;;;;0.08;0.08;;;23.20;15.50;;;;;;5072104;28;20072;-74
2022/07/05 09:13:51;;;;;;;0.32;0.32;;;22.90;16.60;;;;;;5072796;28;20128;-75
2022/07/05 09:16:17;;;;;;;0.75;0.43;;;23.10;18.80;;;;;;5055378;28;20045;-74
2022/07/05 09:18:46;;;;;;;0.00;0.00;;;22.50;14.50;;;;;;5073088;28;20051;-74
2022/07/05 09:21:18;;;;;;;0.20;0.20;;;22.00;17.60;;;;;;5072608;28;20049;-74
2022/07/05 09:23:53;;;;;;;0.00;0.00;;;22.30;19.50;;;;;;5072845;28;20080;-73
2022/07/05 09:26:18;;;;;;;0.00;0.00;;;23.20;12.20;;;;;;5072889;28;20057;-74
2022/07/05 09:28:55;;;;;;;0.10;0.10;;;23.50;9.00;;;;;;5072762;28;20164;-74
2022/07/05 09:31:28;;;;;;;0.38;0.22;;;22.90;6.20;;;;;;5072807;28;20048;-74
2022/07/05 09:33:54;;;;;;;0.75;0.20;;;22.50;8.40;;;;;;5072740;28;20047;-74
2022/07/05 09:36:19;;;;;;;0.00;0.00;;;21.90;10.60;;;;;;5072643;28;20376;-73
2022/07/05 09:38:51;;;;;;;0.08;0.00;;;21.40;12.30;;;;;;5072583;28;20049;-74
2022/07/05 09:41:16;;;;;;;0.10;0.10;;;21.50;15.60;;;;;;5072602;28;20101;-73
2022/07/05 09:43:42;;;;;;;0.00;0.00;;;22.50;10.10;;;;;;5072788;28;20040;-74
2022/07/05 09:46:08;;;;;;;0.00;0.00;;;23.30;7.30;;;;;;5072570;28;20033;-74
2022/07/05 09:48:34;;;;;;;0.00;0.00;;;24.10;4.50;;;;;;5072562;28;20473;-74
2022/07/05 09:51:13;;;;;;;0.00;0.00;;;24.70;2.70;;;;;;5072596;28;20052;-74
2022/07/05 09:53:45;;;;;;;0.10;0.10;;;24.60;1.00;;;;;;5072191;28;20139;-74
2022/07/05 09:56:11;;;;;;;0.10;0.10;;;25.10;1.00;;;;;;5072464;28;20504;-74
2022/07/05 09:58:37;;;;;;;0.08;0.08;;;25.00;1.00;;;;;;5054631;28;20048;-74
2022/07/05 10:01:29;;;;;;;0.00;0.00;;;24.20;1.00;;;;;;5072261;28;20536;-74
2022/07/05 10:04:01;;;;;;;0.10;0.10;;;23.80;1.00;;;;;;5072226;28;20502;-74
2022/07/05 10:06:28;;;;;;;0.22;0.20;;;23.30;2.10;;;;;;5072502;28;20044;-73
2022/07/05 10:08:54;;;;;;;0.95;0.50;;;23.10;4.60;;;;;;5072313;28;20049;-74
2022/07/05 10:11:29;;;;;;;0.00;0.00;;;22.80;4.10;;;;;;5072365;28;20044;-73
2022/07/05 10:13:55;;;;;;;0.20;0.15;;;22.50;6.50;;;;;;5072315;28;20112;-74
2022/07/05 10:16:22;;;;;;;0.75;0.43;;;22.60;7.20;;;;;;5072040;28;20467;-74
2022/07/05 10:18:54;;;;;;;1.15;0.65;;;22.70;7.40;;;;;;5054414;28;20037;-74
2022/07/05 10:21:21;;;;;;;1.25;0.70;;;22.70;7.10;;;;;;5072740;28;20058;-74
2022/07/05 10:23:53;;;;;;;0.00;0.00;;;22.50;7.10;;;;;;5076256;28;20041;-74
2022/07/05 10:26:20;;;;;;;0.65;0.52;;;22.50;8.70;;;;;;5076330;28;20059;-73
2022/07/05 10:28:49;;;;;;;0.10;0.10;;;22.40;10.00;;;;;;5076173;28;20574;-74
2022/07/05 10:31:16;;;;;;;0.65;0.20;;;22.50;11.40;;;;;;5076123;28;20032;-74
2022/07/05 10:33:42;;;;;;;0.10;0.10;;;22.70;12.90;;;;;;5076291;28;20048;-74
2022/07/05 10:36:11;;;;;;;0.00;0.00;;;22.80;12.70;;;;;;5076164;28;20479;-73
2022/07/05 10:38:43;;;;;;;0.10;0.10;;;22.80;11.60;;;;;;5076094;28;20053;-74
2022/07/05 10:41:13;;;;;;;0.15;0.05;;;22.80;11.80;;;;;;5076217;28;20055;-74
2022/07/05 10:43:39;;;;;;;0.57;0.20;;;22.70;10.70;;;;;;5076042;28;20048;-75
2022/07/05 10:46:07;;;;;;;0.22;0.20;;;22.70;8.10;;;;;;5076167;28;20082;-74
2022/07/05 10:48:34;;;;;;;0.63;0.40;;;22.80;9.90;;;;;;5076116;28;20052;-74
2022/07/05 10:51:16;;;;;;;0.43;0.30;;;23.00;9.10;;;;;;5076099;28;20033;-74
2022/07/05 10:53:41;;;;;;;0.28;0.28;;;23.10;7.80;;;;;;5075647;28;20052;-75
2022/07/05 10:56:07;;;;;;;0.08;0.08;;;23.20;8.10;;;;;;5075546;28;20041;-75
2022/07/05 10:58:40;;;;;;;0.00;0.00;;;23.60;9.00;;;;;;5075959;28;20045;-75
2022/07/05 11:01:12;;;;;;;0.00;0.00;;;24.10;9.10;;;;;;5075904;28;20044;-74
2022/07/05 11:03:42;;;;;;;0.00;0.00;;;24.10;1.40;;;;;;5075757;28;20166;-74
2022/07/05 11:06:18;;;;;;;0.15;0.15;;;23.90;1.00;;;;;;5075649;28;20074;-74
2022/07/05 11:08:59;;;;;;;;;;;23.70;1.00;;;;;;5059892;28;20044;-75
2022/07/05 11:11:25;;;;;;;0.08;0.08;;;23.60;2.90;;;;;;5076164;28;19939;-74
2022/07/05 11:13:51;;;;;;;0.00;0.00;;;23.70;1.70;;;;;;5075827;28;20089;-75
2022/07/05 11:16:30;;;;;;;0.00;0.00;;;23.90;3.00;;;;;;5075683;28;20050;-74
2022/07/05 11:19:09;;;;;;;0.00;0.00;;;24.60;6.20;;;;;;5075557;28;20089;-75
2022/07/05 11:21:36;;;;;;;0.00;0.00;;;24.80;1.00;;;;;;5075355;28;20064;-75
2022/07/05 11:24:17;;;;;;;0.00;0.00;;;25.10;1.00;;;;;;5075218;28;20520;-75
2022/07/05 11:26:44;;;;;;;0.00;0.00;;;25.60;1.00;;;;;;5075272;28;20040;-75
2022/07/05 11:29:45;;;;;;;0.85;0.47;;;26.20;1.00;;;;;;5075193;28;20051;-75
2022/07/05 11:32:18;;;;;;;0.10;0.10;;;26.80;1.00;;;;;;5022313;28;20056;-74
2022/07/05 11:34:48;;;;;;;0.10;0.10;;;27.40;1.00;;;;;;5074048;28;20051;-74
2022/07/05 11:37:14;;;;;;;14.70;0.20;;;27.50;1.00;;;;;;5057015;28;20046;-73
2022/07/05 11:39:40;;;;;;;0.17;0.05;;;27.20;1.00;;;;;;5074880;28;20036;-73
2022/07/05 11:42:08;;;;;;;0.00;0.00;;;26.00;1.00;;;;;;5074916;28;20045;-74
2022/07/05 11:44:34;;;;;;;1.17;0.20;;;25.00;1.00;;;;;;5074987;28;20090;-74
2022/07/05 11:47:00;;;;;;;0.10;0.10;;;24.20;1.00;;;;;;5074803;28;20116;-74
2022/07/05 11:49:26;;;;;;;0.47;0.35;;;24.00;1.00;;;;;;5074683;28;20562;-75
2022/07/05 11:52:00;;;;;;;0.90;0.35;;;23.40;1.00;;;;;;5074866;28;20111;-74
2022/07/05 11:54:28;;;;;;;0.43;0.17;;;23.20;1.00;;;;;;5074636;28;20037;-75
2022/07/05 11:56:54;;;;;;;0.20;0.13;;;23.60;1.00;;;;;;5074654;28;20056;-75
2022/07/05 11:59:20;;;;;;;0.03;0.03;;;24.20;1.00;;;;;;5074681;28;20045;-75
2022/07/05 12:01:46;;;;;;;0.30;0.28;;;24.60;1.00;;;;;;5074794;28;20075;-74
2022/07/05 12:04:20;;;;;;;0.80;0.45;;;24.20;1.00;;;;;;5074434;28;20445;-74
2022/07/05 12:06:48;;;;;;;0.00;0.00;;;24.00;1.00;;;;;;5074393;28;20580;-74
2022/07/05 12:09:13;;;;;;;0.40;0.32;;;24.40;1.00;;;;;;5074207;28;20045;-74
2022/07/05 12:14:23;;;;;;;0.25;0.10;;;26.30;1.00;;;;;;5074388;28;20045;-73
2022/07/05 12:17:12;;;;;;;0.10;0.10;;;26.90;1.00;;;;;;5074266;28;20429;-74
2022/07/05 12:19:38;;;;;;;2.42;0.68;;;27.50;1.00;;;;;;5074388;28;20367;-74
2022/07/05 12:22:04;;;;;;;0.00;0.00;;;27.30;1.00;;;;;;5074323;28;20044;-73
2022/07/05 12:24:29;;;;;;;0.47;0.20;;;27.60;1.00;;;;;;5074167;28;20037;-74
2022/07/05 12:26:55;;;;;;;0.45;0.20;;;27.60;1.00;;;;;;5074186;28;20504;-74
2022/07/05 12:29:21;;;;;;;0.00;0.00;;;26.80;1.00;;;;;;5073996;28;20032;-74
2022/07/05 12:32:16;;;;;;;0.00;0.00;;;26.00;1.00;;;;;;5073880;28;20032;-74
2022/07/05 12:34:42;;;;;;;3.83;0.80;;;25.00;1.00;;;;;;5041922;28;20415;-73
2022/07/05 12:37:07;;;;;;;1.65;0.65;;;25.00;2.20;;;;;;5073855;28;20036;-73
2022/07/05 12:39:33;;;;;;;0.00;0.00;;;25.30;2.20;;;;;;5073762;28;20086;-74
2022/07/05 12:41:59;;;;;;;0.15;0.10;;;25.40;1.00;;;;;;5073867;28;20502;-74
2022/07/05 12:44:25;;;;;;;0.15;0.15;;;26.10;1.00;;;;;;5073431;28;20080;-74
2022/07/05 12:46:51;;;;;;;4.57;0.40;;;25.90;1.00;;;;;;5073794;28;20044;-74
2022/07/05 12:49:17;;;;;;;0.52;0.25;;;26.40;1.00;;;;;;5073554;28;20105;-74
2022/07/05 12:51:44;;;;;;;0.00;0.00;;;27.10;1.00;;;;;;5073670;28;20087;-74
2022/07/05 13:00:05;;;;;;;0.30;0.15;;;27.50;1.00;;;;;;5073553;28;20045;-74
2022/07/05 13:02:39;;;;;;;0.00;0.00;;;27.80;1.00;;;;;;5073332;28;20045;-75
2022/07/05 13:05:08;;;;;;;0.00;0.00;;;27.40;1.00;;;;;;5073469;28;20045;-75
2022/07/05 13:07:41;;;;;;;1.63;0.43;;;26.70;1.00;;;;;;5073073;28;20538;-74